createdAt,value
2023-04-07T00:01:36.816Z,99.90
2023-04-07T00:03:41.756Z,99.90
2023-04-07T00:05:44.557Z,99.90
2023-04-07T00:07:56.859Z,99.90
2023-04-07T00:10:01.865Z,99.90
2023-04-07T00:12:05.113Z,99.90
2023-04-07T00:14:07.886Z,99.90
2023-04-07T00:16:10.731Z,99.90
2023-04-07T00:18:24.342Z,99.90
2023-04-07T00:20:27.090Z,99.90
2023-04-07T00:22:32.818Z,99.90
2023-04-07T00:24:38.331Z,99.90
2023-04-07T00:26:40.879Z,99.90
2023-04-07T00:28:48.372Z,99.90
2023-04-07T00:30:51.157Z,99.90
2023-04-07T00:32:53.906Z,99.90
2023-04-07T00:34:56.635Z,99.90
2023-04-07T00:36:59.339Z,99.90
2023-04-07T00:39:01.906Z,99.90
2023-04-07T00:41:08.785Z,99.90
2023-04-07T00:43:11.526Z,99.90
2023-04-07T00:45:14.402Z,99.90
2023-04-07T00:47:17.269Z,99.90
2023-04-07T00:49:19.730Z,99.90
2023-04-07T00:51:23.079Z,99.90
2023-04-07T00:53:25.905Z,99.90
2023-04-07T00:55:28.872Z,99.90
2023-04-07T00:57:34.190Z,99.90
2023-04-07T00:59:38.070Z,99.90
2023-04-07T01:01:46.733Z,99.90
2023-04-07T01:04:13.918Z,99.90
2023-04-07T01:06:31.741Z,99.90
2023-04-07T01:08:43.009Z,99.90
2023-04-07T01:11:07.121Z,99.90
2023-04-07T01:13:31.006Z,99.90
2023-04-07T01:16:16.947Z,99.90
2023-04-07T01:18:28.957Z,99.90
2023-04-07T01:20:34.219Z,99.90
2023-04-07T01:22:43.360Z,99.90
2023-04-07T01:25:06.122Z,99.90
2023-04-07T01:27:21.663Z,99.90
2023-04-07T01:29:40.804Z,99.90
2023-04-07T01:32:06.528Z,99.90
2023-04-07T01:34:15.708Z,99.90
2023-04-07T01:36:27.150Z,99.90
2023-04-07T01:38:30.211Z,99.90
2023-04-07T01:40:47.544Z,99.90
2023-04-07T01:42:51.516Z,99.90
2023-04-07T01:44:59.689Z,99.90
2023-04-07T01:47:03.091Z,99.90
2023-04-07T01:49:06.832Z,99.90
2023-04-07T01:51:12.131Z,99.90
2023-04-07T01:53:16.161Z,99.90
2023-04-07T01:55:26.185Z,99.90
2023-04-07T01:57:41.876Z,99.90
2023-04-07T02:00:00.662Z,99.90
2023-04-07T02:02:15.369Z,99.90
2023-04-07T02:04:25.881Z,99.90
2023-04-07T02:06:33.792Z,99.90
2023-04-07T02:08:41.764Z,99.90
2023-04-07T02:10:49.592Z,99.90
2023-04-07T02:12:52.758Z,99.90
2023-04-07T02:15:00.956Z,99.90
2023-04-07T02:17:06.097Z,99.90
2023-04-07T02:19:09.448Z,99.90
2023-04-07T02:21:13.896Z,99.90
2023-04-07T02:23:17.645Z,99.90
2023-04-07T02:25:24.591Z,99.90
2023-04-07T02:27:29.523Z,99.90
2023-04-07T02:29:32.121Z,99.90
2023-04-07T02:31:41.703Z,99.90
2023-04-07T02:33:44.309Z,99.90
2023-04-07T02:35:48.416Z,99.90
2023-04-07T02:37:51.819Z,99.90
2023-04-07T02:39:55.713Z,99.90
2023-04-07T02:41:58.383Z,99.90
2023-04-07T02:44:15.583Z,99.90
2023-04-07T02:46:19.055Z,99.90
2023-04-07T02:48:27.118Z,99.90
2023-04-07T02:50:29.891Z,99.90
2023-04-07T02:52:32.654Z,99.90
2023-04-07T02:54:35.239Z,99.90
2023-04-07T02:56:39.478Z,99.90
2023-04-07T02:58:41.979Z,99.90
2023-04-07T03:00:45.722Z,99.90
2023-04-07T03:02:52.567Z,99.90
2023-04-07T03:04:58.609Z,99.90
2023-04-07T03:07:22.272Z,99.90
2023-04-07T03:09:31.735Z,99.90
2023-04-07T03:11:34.376Z,99.90
2023-04-07T03:13:37.089Z,99.90
2023-04-07T03:15:48.607Z,99.90
2023-04-07T03:17:52.244Z,99.90
2023-04-07T03:19:59.494Z,99.90
2023-04-07T03:22:08.161Z,99.90
2023-04-07T03:24:15.717Z,99.90
2023-04-07T03:26:18.239Z,99.90
2023-04-07T03:28:21.453Z,99.90
2023-04-07T03:30:24.173Z,99.90
2023-04-07T03:32:27.178Z,99.90
2023-04-07T03:34:30.088Z,99.90
2023-04-07T03:36:37.470Z,99.90
2023-04-07T03:38:41.609Z,99.90
2023-04-07T03:40:44.765Z,99.90
2023-04-07T03:42:47.537Z,99.90
2023-04-07T03:44:52.516Z,99.90
2023-04-07T03:46:55.832Z,99.90
2023-04-07T03:49:00.119Z,99.90
2023-04-07T03:51:02.814Z,99.90
2023-04-07T03:53:10.068Z,99.90
2023-04-07T03:55:12.838Z,99.90
2023-04-07T03:57:16.748Z,99.90
2023-04-07T03:59:22.750Z,99.90
2023-04-07T04:01:33.907Z,99.90
2023-04-07T04:03:43.787Z,99.90
2023-04-07T04:05:57.695Z,99.90
2023-04-07T04:08:06.190Z,99.90
2023-04-07T04:10:16.333Z,99.90
2023-04-07T04:12:23.378Z,99.90
2023-04-07T04:14:37.767Z,99.90
2023-04-07T04:16:52.141Z,99.90
2023-04-07T04:19:18.333Z,99.90
2023-04-07T04:21:21.051Z,99.90
2023-04-07T04:23:23.585Z,99.90
2023-04-07T04:25:32.780Z,99.90
2023-04-07T04:27:38.034Z,99.90
2023-04-07T04:29:49.020Z,99.90
2023-04-07T04:32:00.842Z,99.90
2023-04-07T04:34:04.404Z,99.90
2023-04-07T04:36:08.027Z,99.90
2023-04-07T04:38:11.529Z,99.90
2023-04-07T04:40:19.441Z,99.90
2023-04-07T04:42:28.348Z,99.90
2023-04-07T04:44:32.733Z,99.90
2023-04-07T04:46:38.054Z,99.90
2023-04-07T04:48:41.103Z,99.90
2023-04-07T04:50:46.267Z,99.90
2023-04-07T04:52:51.009Z,99.90
2023-04-07T04:54:57.718Z,99.90
2023-04-07T04:57:02.800Z,99.90
2023-04-07T04:59:08.669Z,99.90
2023-04-07T05:01:28.015Z,99.90
2023-04-07T05:03:38.845Z,99.90
2023-04-07T05:05:49.014Z,99.90
2023-04-07T05:07:54.987Z,99.90
2023-04-07T05:09:58.381Z,99.90
2023-04-07T05:12:02.768Z,99.90
2023-04-07T05:14:12.809Z,99.90
2023-04-07T05:16:20.044Z,99.90
2023-04-07T05:18:24.506Z,99.90
2023-04-07T05:20:27.984Z,99.90
2023-04-07T05:22:31.198Z,99.90
2023-04-07T05:24:34.788Z,99.90
2023-04-07T05:26:38.993Z,99.90
2023-04-07T05:28:42.371Z,99.90
2023-04-07T05:30:54.108Z,99.90
2023-04-07T05:33:01.342Z,99.90
2023-04-07T05:35:15.046Z,99.90
2023-04-07T05:37:24.921Z,99.90
2023-04-07T05:39:27.772Z,99.90
2023-04-07T05:41:32.772Z,99.90
2023-04-07T05:43:37.753Z,99.90
2023-04-07T05:45:42.825Z,99.90
2023-04-07T05:47:50.938Z,99.90
2023-04-07T05:50:01.155Z,99.90
2023-04-07T05:52:06.125Z,99.90
2023-04-07T05:54:13.085Z,99.90
2023-04-07T05:56:22.309Z,99.90
2023-04-07T05:58:26.376Z,99.90
2023-04-07T06:00:31.537Z,99.90
2023-04-07T06:02:46.771Z,99.90
2023-04-07T06:04:56.885Z,99.90
2023-04-07T06:07:05.133Z,99.90
2023-04-07T06:09:08.370Z,99.90
2023-04-07T06:11:11.413Z,99.90
2023-04-07T06:13:14.159Z,99.90
2023-04-07T06:15:18.752Z,99.90
2023-04-07T06:17:41.278Z,99.90
2023-04-07T06:19:44.519Z,99.90
2023-04-07T06:21:50.124Z,99.90
2023-04-07T06:23:55.786Z,99.90
2023-04-07T06:26:13.426Z,99.90
2023-04-07T06:28:16.841Z,99.90
2023-04-07T06:30:22.118Z,99.90
2023-04-07T06:32:29.122Z,99.90
2023-04-07T06:34:50.934Z,99.90
2023-04-07T06:37:17.174Z,99.90
2023-04-07T06:39:42.302Z,99.90
2023-04-07T06:42:04.988Z,99.90
2023-04-07T06:44:13.409Z,99.90
2023-04-07T06:46:16.056Z,99.90
2023-04-07T06:48:25.126Z,99.90
2023-04-07T06:50:27.843Z,99.90
2023-04-07T06:52:35.090Z,99.90
2023-04-07T06:54:40.384Z,99.90
2023-04-07T06:56:43.242Z,99.90
2023-04-07T06:58:46.400Z,99.90
2023-04-07T07:00:48.945Z,99.90
2023-04-07T07:02:52.529Z,99.90
2023-04-07T07:04:55.102Z,99.90
2023-04-07T07:06:58.265Z,99.90
2023-04-07T07:09:19.735Z,99.90
2023-04-07T07:11:22.345Z,99.90
2023-04-07T07:13:26.864Z,99.90
2023-04-07T07:15:30.967Z,99.90
2023-04-07T07:17:33.848Z,99.90
2023-04-07T07:19:36.490Z,99.90
2023-04-07T07:21:46.599Z,99.90
2023-04-07T07:23:59.389Z,99.90
2023-04-07T07:26:06.407Z,99.90
2023-04-07T07:28:09.909Z,99.90
2023-04-07T07:30:13.273Z,99.90
2023-04-07T07:32:36.104Z,99.90
2023-04-07T07:34:38.644Z,99.90
2023-04-07T07:36:41.656Z,99.90
2023-04-07T07:38:44.282Z,99.90
2023-04-07T07:40:48.158Z,99.90
2023-04-07T07:43:13.271Z,99.90
2023-04-07T07:45:17.708Z,99.90
2023-04-07T07:47:37.996Z,99.90
2023-04-07T07:49:42.360Z,99.90
2023-04-07T07:51:47.326Z,99.90
2023-04-07T07:53:50.047Z,99.90
2023-04-07T07:55:53.007Z,99.90
2023-04-07T07:57:57.986Z,99.90
2023-04-07T08:00:04.657Z,99.90
2023-04-07T08:02:16.197Z,99.90
2023-04-07T08:04:19.298Z,99.90
2023-04-07T08:06:22.262Z,99.90
2023-04-07T08:08:45.059Z,99.90
2023-04-07T08:11:07.603Z,99.90
2023-04-07T08:13:30.273Z,99.90
2023-04-07T08:15:47.342Z,99.90
2023-04-07T08:17:49.904Z,99.90
2023-04-07T08:19:52.481Z,99.90
2023-04-07T08:21:54.973Z,99.90
2023-04-07T08:23:57.600Z,99.90
2023-04-07T08:26:00.272Z,99.90
2023-04-07T08:28:02.762Z,99.90
2023-04-07T08:30:09.945Z,99.90
2023-04-07T08:32:16.305Z,99.90
2023-04-07T08:34:20.959Z,99.90
2023-04-07T08:36:23.776Z,99.90
2023-04-07T08:38:26.562Z,99.90
2023-04-07T08:40:29.388Z,99.90
2023-04-07T08:42:34.083Z,99.90
2023-04-07T08:44:38.522Z,99.90
2023-04-07T08:46:41.746Z,99.90
2023-04-07T08:48:51.721Z,99.90
2023-04-07T08:50:54.874Z,99.90
2023-04-07T08:53:00.912Z,99.90
2023-04-07T08:55:07.031Z,99.90
2023-04-07T08:57:10.148Z,99.90
2023-04-07T08:59:14.990Z,99.90
2023-04-07T09:01:18.413Z,99.90
2023-04-07T09:03:22.967Z,99.90
2023-04-07T09:05:28.404Z,99.90
2023-04-07T09:07:33.253Z,99.90
2023-04-07T09:09:35.955Z,99.90
2023-04-07T09:11:40.843Z,99.90
2023-04-07T09:13:46.429Z,99.90
2023-04-07T09:15:49.196Z,99.90
2023-04-07T09:17:51.925Z,99.90
2023-04-07T09:19:57.485Z,99.90
2023-04-07T09:22:02.615Z,99.90
2023-04-07T09:24:21.391Z,99.90
2023-04-07T09:26:25.818Z,99.90
2023-04-07T09:28:43.257Z,99.90
2023-04-07T09:30:54.970Z,99.90
2023-04-07T09:32:59.340Z,99.90
2023-04-07T09:35:01.948Z,99.90
2023-04-07T09:37:09.618Z,99.90
2023-04-07T09:39:13.719Z,99.90
2023-04-07T09:41:17.469Z,99.90
2023-04-07T09:43:20.224Z,99.90
2023-04-07T09:45:33.729Z,99.90
2023-04-07T09:47:38.421Z,99.90
2023-04-07T09:49:51.343Z,99.90
2023-04-07T09:51:56.239Z,99.90
2023-04-07T09:54:01.248Z,99.90
2023-04-07T09:56:04.801Z,99.90
2023-04-07T09:58:09.532Z,99.90
2023-04-07T10:00:32.253Z,99.90
2023-04-07T10:02:34.873Z,99.90
2023-04-07T10:04:37.856Z,99.90
2023-04-07T10:06:41.764Z,99.90
2023-04-07T10:08:44.582Z,99.90
2023-04-07T10:10:51.477Z,99.90
2023-04-07T10:12:55.932Z,99.90
2023-04-07T10:14:58.778Z,99.90
2023-04-07T10:17:02.388Z,99.90
2023-04-07T10:19:07.084Z,99.90
2023-04-07T10:21:20.946Z,99.90
2023-04-07T10:24:03.879Z,99.90
2023-04-07T10:26:10.054Z,99.90
2023-04-07T10:28:16.684Z,99.90
2023-04-07T10:31:03.321Z,99.90
2023-04-07T10:33:46.271Z,99.90
2023-04-07T10:36:06.185Z,99.90
2023-04-07T10:38:16.951Z,99.90
2023-04-07T10:40:30.366Z,99.90
2023-04-07T10:42:53.756Z,99.90
2023-04-07T10:45:16.694Z,99.90
2023-04-07T10:47:19.648Z,99.90
2023-04-07T10:49:22.377Z,99.90
2023-04-07T10:51:24.924Z,99.90
2023-04-07T10:53:27.584Z,99.90
2023-04-07T10:55:38.219Z,99.90
2023-04-07T10:58:22.906Z,99.90
2023-04-07T11:00:25.773Z,99.90
2023-04-07T11:02:35.612Z,99.90
2023-04-07T11:04:39.126Z,99.90
2023-04-07T11:06:48.266Z,99.90
2023-04-07T11:08:52.546Z,99.90
2023-04-07T11:11:16.983Z,99.90
2023-04-07T11:13:44.572Z,99.90
2023-04-07T11:15:51.344Z,99.90
2023-04-07T11:18:12.986Z,99.90
2023-04-07T11:20:15.735Z,99.90
2023-04-07T11:24:38.881Z,99.90
2023-04-07T11:26:51.780Z,99.90
2023-04-07T11:28:59.186Z,99.90
2023-04-07T11:31:03.152Z,99.90
2023-04-07T11:33:06.059Z,99.90
2023-04-07T11:35:10.612Z,99.90
2023-04-07T11:37:25.080Z,99.90
2023-04-07T11:39:39.737Z,99.90
2023-04-07T11:41:47.346Z,99.90
2023-04-07T11:43:51.247Z,99.90
2023-04-07T11:46:12.868Z,99.90
2023-04-07T11:48:29.292Z,99.90
2023-04-07T11:50:41.497Z,99.90
2023-04-07T11:52:48.233Z,99.90
2023-04-07T11:54:51.012Z,99.90
2023-04-07T11:56:56.216Z,99.90
2023-04-07T11:58:59.366Z,99.90
2023-04-07T12:01:06.063Z,99.90
2023-04-07T12:03:15.044Z,99.90
2023-04-07T12:05:18.148Z,99.90
2023-04-07T12:07:21.480Z,99.90
2023-04-07T12:09:36.698Z,99.90
2023-04-07T12:11:50.401Z,99.90
2023-04-07T12:13:53.164Z,99.90
2023-04-07T12:15:55.911Z,99.90
2023-04-07T12:17:58.947Z,99.90
2023-04-07T12:20:04.821Z,99.90
2023-04-07T12:22:07.632Z,99.90
2023-04-07T12:24:10.143Z,99.90
2023-04-07T12:26:13.356Z,99.90
2023-04-07T12:28:16.116Z,99.90
2023-04-07T12:30:21.124Z,99.90
2023-04-07T12:32:23.957Z,99.90
2023-04-07T12:34:27.626Z,99.90
2023-04-07T12:36:36.631Z,99.90
2023-04-07T12:38:41.000Z,99.90
2023-04-07T12:40:44.101Z,99.90
2023-04-07T12:42:46.645Z,99.90
2023-04-07T12:44:50.528Z,99.90
2023-04-07T12:46:53.720Z,99.90
2023-04-07T12:48:56.345Z,99.90
2023-04-07T12:50:58.915Z,99.90
2023-04-07T12:53:05.559Z,99.90
2023-04-07T12:55:08.647Z,99.90
2023-04-07T12:57:11.486Z,99.90
2023-04-07T12:59:14.296Z,99.90
2023-04-07T13:01:17.117Z,99.90
2023-04-07T13:03:19.867Z,99.90
2023-04-07T13:05:22.705Z,99.90
2023-04-07T13:07:25.281Z,99.90
2023-04-07T13:09:33.450Z,99.90
2023-04-07T13:11:36.471Z,99.10
2023-04-07T13:13:38.984Z,99.10
2023-04-07T13:15:41.597Z,99.20
2023-04-07T13:17:44.158Z,99.60
2023-04-07T13:19:47.710Z,99.70
2023-04-07T13:21:50.182Z,99.50
2023-04-07T13:23:52.837Z,99.60
2023-04-07T13:25:57.853Z,99.20
2023-04-07T13:28:00.650Z,97.70
2023-04-07T13:30:03.434Z,98.80
2023-04-07T13:32:07.108Z,99.20
2023-04-07T13:34:09.531Z,99.20
2023-04-07T13:36:12.042Z,98.60
2023-04-07T13:38:15.693Z,98.10
2023-04-07T13:40:18.275Z,98.70
2023-04-07T13:42:23.466Z,98.90
2023-04-07T13:44:27.562Z,98.50
2023-04-07T13:46:29.970Z,99.00
2023-04-07T13:48:32.886Z,97.90
2023-04-07T13:50:36.951Z,99.20
2023-04-07T13:52:39.440Z,99.00
2023-04-07T13:54:42.249Z,99.30
2023-04-07T13:56:44.712Z,99.40
2023-04-07T13:58:49.865Z,99.20
2023-04-07T14:00:52.380Z,98.40
2023-04-07T14:02:56.316Z,98.70
2023-04-07T14:04:59.001Z,98.30
2023-04-07T14:07:01.455Z,98.90
2023-04-07T14:09:04.317Z,99.00
2023-04-07T14:11:06.774Z,98.70
2023-04-07T14:13:09.218Z,98.90
2023-04-07T14:15:15.182Z,98.50
2023-04-07T14:17:18.634Z,97.50
2023-04-07T14:19:24.820Z,97.60
2023-04-07T14:21:31.538Z,98.20
2023-04-07T14:23:37.579Z,98.70
2023-04-07T14:25:40.334Z,98.80
2023-04-07T14:27:42.838Z,98.90
2023-04-07T14:29:45.290Z,99.20
2023-04-07T14:31:51.653Z,98.90
2023-04-07T14:33:54.584Z,98.90
2023-04-07T14:35:57.711Z,98.60
2023-04-07T14:38:00.567Z,98.90
2023-04-07T14:40:04.017Z,98.90
2023-04-07T14:42:07.700Z,98.50
2023-04-07T14:44:10.204Z,97.70
2023-04-07T14:46:12.717Z,97.80
2023-04-07T14:48:17.915Z,97.50
2023-04-07T14:50:20.467Z,92.00
2023-04-07T14:52:22.994Z,95.40
2023-04-07T14:54:25.610Z,95.20
2023-04-07T14:56:28.258Z,95.80
2023-04-07T14:58:30.762Z,95.80
2023-04-07T15:00:33.251Z,96.40
2023-04-07T15:02:36.675Z,96.90
2023-04-07T15:04:42.106Z,97.20
2023-04-07T15:06:46.934Z,97.00
2023-04-07T15:08:51.122Z,96.90
2023-04-07T15:10:54.891Z,97.00
2023-04-07T15:12:57.326Z,97.00
2023-04-07T15:14:59.845Z,96.00
2023-04-07T15:17:02.339Z,96.00
2023-04-07T15:19:04.917Z,96.00
2023-04-07T15:21:10.969Z,95.50
2023-04-07T15:23:14.977Z,95.60
2023-04-07T15:25:17.658Z,96.10
2023-04-07T15:27:20.123Z,96.40
2023-04-07T15:29:22.631Z,96.10
2023-04-07T15:31:27.362Z,95.20
2023-04-07T15:33:29.940Z,95.00
2023-04-07T15:35:32.505Z,94.50
2023-04-07T15:37:38.672Z,93.90
2023-04-07T15:39:41.168Z,93.00
2023-04-07T15:41:44.532Z,92.60
2023-04-07T15:43:47.125Z,91.90
2023-04-07T15:45:49.685Z,92.50
2023-04-07T15:47:53.700Z,91.70
2023-04-07T15:49:56.318Z,92.00
2023-04-07T15:51:59.716Z,91.70
2023-04-07T15:54:04.825Z,88.80
2023-04-07T15:56:07.696Z,72.80
2023-04-07T15:58:10.772Z,85.50
2023-04-07T16:00:14.701Z,80.80
2023-04-07T16:02:17.186Z,69.90
2023-04-07T16:04:19.868Z,70.10
2023-04-07T16:06:22.563Z,68.60
2023-04-07T16:08:25.714Z,60.10
2023-04-07T16:10:30.921Z,58.90
2023-04-07T16:12:34.507Z,60.00
2023-04-07T16:14:37.021Z,60.00
2023-04-07T16:16:41.571Z,60.20
2023-04-07T16:18:44.119Z,58.60
2023-04-07T16:20:46.548Z,57.80
2023-04-07T16:22:49.073Z,57.00
2023-04-07T16:24:51.639Z,56.90
2023-04-07T16:26:56.794Z,56.40
2023-04-07T16:28:59.285Z,53.80
2023-04-07T16:31:02.862Z,53.10
2023-04-07T16:33:05.372Z,53.10
2023-04-07T16:35:08.911Z,52.00
2023-04-07T16:37:11.866Z,50.90
2023-04-07T16:39:14.352Z,50.10
2023-04-07T16:41:16.806Z,50.20
2023-04-07T16:43:22.700Z,49.10
2023-04-07T16:45:25.235Z,48.70
2023-04-07T16:47:28.350Z,49.60
2023-04-07T16:49:30.948Z,50.30
2023-04-07T16:51:33.441Z,51.70
2023-04-07T16:53:35.911Z,51.50
2023-04-07T16:55:38.778Z,51.70
2023-04-07T16:57:41.238Z,52.50
2023-04-07T16:59:46.631Z,53.70
2023-04-07T17:01:49.166Z,56.40
2023-04-07T17:03:52.766Z,59.00
2023-04-07T17:05:55.747Z,61.10
2023-04-07T17:07:58.276Z,60.00
2023-04-07T17:10:01.313Z,59.20
2023-04-07T17:12:04.417Z,59.10
2023-04-07T17:14:06.995Z,60.30
2023-04-07T17:16:14.443Z,64.70
2023-04-07T17:18:17.074Z,65.80
2023-04-07T17:20:19.667Z,64.30
2023-04-07T17:22:22.209Z,63.20
2023-04-07T17:24:25.108Z,56.40
2023-04-07T17:26:27.653Z,53.80
2023-04-07T17:28:33.001Z,50.70
2023-04-07T17:30:38.842Z,49.00
2023-04-07T17:32:43.963Z,50.30
2023-04-07T17:34:46.667Z,52.40
2023-04-07T17:36:49.619Z,54.20
2023-04-07T17:38:55.162Z,55.90
2023-04-07T17:40:59.032Z,57.90
2023-04-07T17:43:02.922Z,61.10
2023-04-07T17:45:08.427Z,63.20
2023-04-07T17:47:10.960Z,63.60
2023-04-07T17:49:17.363Z,66.70
2023-04-07T17:51:19.925Z,69.00
2023-04-07T17:53:22.315Z,71.10
2023-04-07T17:55:24.761Z,71.20
2023-04-07T17:57:27.229Z,72.70
2023-04-07T17:59:32.278Z,75.50
2023-04-07T18:01:35.054Z,78.20
2023-04-07T18:03:38.578Z,80.40
2023-04-07T18:05:46.811Z,82.20
2023-04-07T18:07:51.899Z,83.20
2023-04-07T18:09:54.615Z,85.00
2023-04-07T18:11:57.090Z,86.00
2023-04-07T18:13:59.620Z,86.90
2023-04-07T18:16:02.150Z,88.30
2023-04-07T18:18:04.895Z,89.80
2023-04-07T18:20:08.548Z,90.20
2023-04-07T18:22:15.626Z,90.50
2023-04-07T18:24:18.284Z,90.70
2023-04-07T18:26:20.855Z,91.00
2023-04-07T18:28:23.406Z,91.20
2023-04-07T18:30:25.901Z,91.40
2023-04-07T18:32:28.571Z,91.60
2023-04-07T18:34:31.049Z,91.80
2023-04-07T18:36:33.834Z,91.70
2023-04-07T18:38:39.243Z,91.90
2023-04-07T18:40:41.763Z,92.00
2023-04-07T18:42:44.230Z,92.20
2023-04-07T18:44:46.705Z,92.70
2023-04-07T18:46:50.049Z,92.90
2023-04-07T18:48:52.486Z,93.10
2023-04-07T18:50:55.832Z,93.10
2023-04-07T18:52:58.925Z,93.10
2023-04-07T18:55:05.076Z,93.10
2023-04-07T18:57:08.112Z,93.40
2023-04-07T18:59:10.984Z,93.60
2023-04-07T19:01:13.824Z,93.80
2023-04-07T19:03:16.702Z,94.00
2023-04-07T19:05:23.064Z,94.30
2023-04-07T19:07:28.102Z,94.70
2023-04-07T19:09:30.685Z,94.90
2023-04-07T19:11:36.235Z,95.10
2023-04-07T19:13:38.717Z,95.50
2023-04-07T19:15:46.333Z,95.80
2023-04-07T19:17:48.891Z,95.90
2023-04-07T19:19:51.525Z,96.20
2023-04-07T19:21:54.120Z,96.30
2023-04-07T19:23:56.795Z,96.50
2023-04-07T19:26:01.007Z,97.00
2023-04-07T19:28:06.058Z,96.90
2023-04-07T19:30:09.511Z,96.80
2023-04-07T19:32:11.967Z,96.90
2023-04-07T19:34:14.480Z,97.00
2023-04-07T19:36:17.121Z,97.20
2023-04-07T19:38:19.856Z,97.20
2023-04-07T19:40:23.558Z,97.40
2023-04-07T19:42:26.520Z,97.50
2023-04-07T19:44:31.748Z,97.60
2023-04-07T19:46:34.393Z,97.70
2023-04-07T19:48:37.923Z,97.70
2023-04-07T19:50:43.892Z,97.80
2023-04-07T19:52:47.422Z,97.90
2023-04-07T19:54:49.980Z,98.20
2023-04-07T19:56:52.692Z,98.10
2023-04-07T19:58:55.248Z,98.30
2023-04-07T20:01:00.555Z,98.30
2023-04-07T20:03:03.821Z,98.40
2023-04-07T20:05:09.932Z,98.60
2023-04-07T20:07:12.525Z,98.70
2023-04-07T20:09:15.127Z,98.80
2023-04-07T20:11:17.653Z,98.80
2023-04-07T20:13:20.600Z,99.00
2023-04-07T20:15:25.018Z,99.10
2023-04-07T20:17:32.697Z,99.20
2023-04-07T20:19:35.526Z,99.30
2023-04-07T20:21:38.059Z,99.50
2023-04-07T20:23:40.905Z,99.60
2023-04-07T20:25:43.352Z,99.80
2023-04-07T20:27:49.228Z,99.90
2023-04-07T20:29:52.385Z,99.90
2023-04-07T20:31:54.817Z,99.90
2023-04-07T20:34:00.332Z,99.90
2023-04-07T20:36:02.888Z,99.90
2023-04-07T20:38:05.711Z,99.90
2023-04-07T20:40:09.553Z,99.90
2023-04-07T20:42:12.749Z,99.90
2023-04-07T20:44:15.818Z,99.90
2023-04-07T20:46:19.451Z,99.90
2023-04-07T20:48:24.133Z,99.90
2023-04-07T20:50:29.992Z,99.90
2023-04-07T20:52:32.432Z,99.90
2023-04-07T20:54:36.320Z,99.90
2023-04-07T20:56:39.040Z,99.90
2023-04-07T20:58:41.969Z,99.90
2023-04-07T21:00:44.614Z,99.90
2023-04-07T21:02:48.773Z,99.90
2023-04-07T21:04:52.151Z,99.90
2023-04-07T21:06:57.415Z,99.90
2023-04-07T21:09:00.108Z,99.90
2023-04-07T21:11:05.577Z,99.90
2023-04-07T21:13:08.080Z,99.90
2023-04-07T21:15:11.615Z,99.90
2023-04-07T21:17:14.635Z,99.90
2023-04-07T21:19:17.917Z,99.90
2023-04-07T21:21:20.669Z,99.90
2023-04-07T21:23:26.149Z,99.70
2023-04-07T21:25:28.857Z,99.60
2023-04-07T21:27:31.955Z,99.60
2023-04-07T21:29:34.488Z,99.40
2023-04-07T21:31:37.236Z,99.40
2023-04-07T21:33:40.095Z,99.40
2023-04-07T21:35:43.712Z,99.40
2023-04-07T21:37:47.666Z,99.50
2023-04-07T21:39:55.759Z,99.60
2023-04-07T21:42:01.712Z,99.80
2023-04-07T21:44:09.447Z,99.90
2023-04-07T21:46:14.419Z,99.90
2023-04-07T21:48:20.965Z,99.90
2023-04-07T21:50:24.179Z,99.90
2023-04-07T21:52:29.566Z,99.90
2023-04-07T21:54:32.524Z,99.90
2023-04-07T21:56:37.757Z,99.90
2023-04-07T21:58:42.123Z,99.90
2023-04-07T22:00:47.829Z,99.90
2023-04-07T22:02:51.623Z,99.90
2023-04-07T22:04:54.364Z,99.90
2023-04-07T22:06:58.275Z,99.90
2023-04-07T22:09:02.226Z,99.90
2023-04-07T22:11:18.456Z,99.90
2023-04-07T22:13:23.771Z,99.90
2023-04-07T22:15:26.781Z,99.90
2023-04-07T22:17:34.001Z,99.90
2023-04-07T22:19:37.787Z,99.90
2023-04-07T22:21:50.102Z,99.90
2023-04-07T22:23:52.682Z,99.90
2023-04-07T22:25:55.646Z,99.90
2023-04-07T22:27:59.394Z,99.90
2023-04-07T22:30:05.565Z,99.90
2023-04-07T22:32:18.600Z,99.90
2023-04-07T22:34:21.296Z,99.90
2023-04-07T22:36:23.803Z,99.90
2023-04-07T22:38:29.350Z,99.90
2023-04-07T22:40:32.126Z,99.90
2023-04-07T22:42:35.738Z,99.90
2023-04-07T22:44:38.345Z,99.90
2023-04-07T22:46:49.382Z,99.90
2023-04-07T22:48:52.117Z,99.90
2023-04-07T22:50:55.036Z,99.90
2023-04-07T22:52:58.297Z,99.90
2023-04-07T22:55:00.889Z,99.90
2023-04-07T22:57:04.211Z,99.90
2023-04-07T22:59:09.772Z,99.90
2023-04-07T23:01:12.687Z,99.90
2023-04-07T23:03:18.139Z,99.90
2023-04-07T23:05:20.950Z,99.90
2023-04-07T23:07:23.518Z,99.90
2023-04-07T23:09:26.610Z,99.90
2023-04-07T23:11:30.512Z,99.90
2023-04-07T23:13:33.336Z,99.90
2023-04-07T23:15:38.858Z,99.90
2023-04-07T23:17:41.701Z,99.90
2023-04-07T23:19:46.897Z,99.90
2023-04-07T23:21:50.024Z,99.90
2023-04-07T23:23:52.864Z,99.90
2023-04-07T23:25:55.612Z,99.90
2023-04-07T23:27:59.474Z,99.90
2023-04-07T23:30:02.362Z,99.90
2023-04-07T23:32:05.956Z,99.90
2023-04-07T23:34:08.516Z,99.90
2023-04-07T23:36:14.104Z,99.90
2023-04-07T23:38:17.411Z,99.90
2023-04-07T23:40:20.435Z,99.90
2023-04-07T23:42:23.020Z,99.90
2023-04-07T23:44:25.828Z,99.90
2023-04-07T23:46:28.544Z,99.90
2023-04-07T23:48:31.629Z,99.90
2023-04-07T23:50:34.407Z,99.90
2023-04-07T23:52:39.741Z,99.90
2023-04-07T23:54:43.266Z,99.90
2023-04-07T23:56:46.038Z,99.90
2023-04-07T23:58:49.125Z,99.90
